This is the latest recevied weather packets stored in our database for station/object DG0PX-12. If no packets are shown the sender has not sent any weather packets the latest 10 day(s).
| Time | Temp. | Humidity | Pressure | Rain* | Wind** | Luminosity | Snow |
|---|---|---|---|---|---|---|---|
| 1787434147 | 18.89° C | 65% | 954.7 hPa | - | - | - | - |
| 1787433247 | 19.44° C | 60% | 954.6 hPa | - | - | - | - |
| 1787432347 | 20° C | 57% | 954.5 hPa | - | - | - | - |
| 1787431447 | 20° C | 59% | 954.5 hPa | - | - | - | - |
| 1787430547 | 20.56° C | 55% | 954.5 hPa | - | - | - | - |
| 1787429646 | 21.11° C | 55% | 954.5 hPa | - | - | - | - |
| 1787428746 | 20.56° C | 57% | 954.3 hPa | - | - | - | - |
| 1787427846 | 20° C | 58% | 954.3 hPa | - | - | - | - |
| 1787426946 | 21.67° C | 54% | 954.2 hPa | - | - | - | - |
| 1787426046 | 21.67° C | 58% | 953.9 hPa | - | - | - | - |
| 1787425146 | 23.33° C | 51% | 953.9 hPa | - | - | - | - |
| 1787424246 | 21.67° C | 56% | 953.5 hPa | - | - | - | - |
| 1787423346 | 21.11° C | 56% | 953.2 hPa | - | - | - | - |
| 1787422446 | 22.78° C | 47% | 953.2 hPa | - | - | - | - |
| 1787421546 | 25.56° C | 39% | 953.3 hPa | - | - | - | - |
| 1787420646 | 25.56° C | 36% | 953.3 hPa | - | - | - | - |
| 1787419746 | 25.56° C | 35% | 953.3 hPa | - | - | - | - |
| 1787418846 | 25° C | 36% | 953.2 hPa | - | - | - | - |
| 1787417946 | 26.11° C | 34% | 953.2 hPa | - | - | - | - |
| 1787417046 | 25.56° C | 34% | 953 hPa | - | - | - | - |
| 1787416146 | 25° C | 35% | 952.9 hPa | - | - | - | - |
| 1787415245 | 26.11° C | 33% | 952.9 hPa | - | - | - | - |
| 1787414345 | 30.56° C | 26% | 953.3 hPa | - | - | - | - |
| 1787413445 | 31.11° C | 27% | 953.1 hPa | - | - | - | - |
| 1787412545 | 26.67° C | 34% | 952.8 hPa | - | - | - | - |
* Rain since midnight (hover to see other rain measurements)
** Current wind speed in m/s (hover to see current wind gust speed)